sensor_id;sensor_type;location;lat;lon;timestamp;temperature;humidity
49132;DHT22;35149;51.196;6.204;2022-07-29T00:01:43;23.00;43.40
49132;DHT22;35149;51.196;6.204;2022-07-29T00:04:14;23.00;43.00
49132;DHT22;35149;51.196;6.204;2022-07-29T00:06:45;23.00;43.00
49132;DHT22;35149;51.196;6.204;2022-07-29T00:09:14;23.00;43.40
49132;DHT22;35149;51.196;6.204;2022-07-29T00:11:43;23.00;42.90
49132;DHT22;35149;51.196;6.204;2022-07-29T00:14:13;23.00;43.20
49132;DHT22;35149;51.196;6.204;2022-07-29T00:16:42;22.90;43.50
49132;DHT22;35149;51.196;6.204;2022-07-29T00:19:09;22.90;43.70
49132;DHT22;35149;51.196;6.204;2022-07-29T00:21:38;22.90;44.10
49132;DHT22;35149;51.196;6.204;2022-07-29T00:24:08;22.90;43.90
49132;DHT22;35149;51.196;6.204;2022-07-29T00:26:35;22.90;43.90
49132;DHT22;35149;51.196;6.204;2022-07-29T00:29:03;22.80;43.90
49132;DHT22;35149;51.196;6.204;2022-07-29T00:31:52;22.80;44.10
49132;DHT22;35149;51.196;6.204;2022-07-29T00:34:19;22.80;44.10
49132;DHT22;35149;51.196;6.204;2022-07-29T00:37:07;22.80;43.90
49132;DHT22;35149;51.196;6.204;2022-07-29T00:39:34;22.70;43.90
49132;DHT22;35149;51.196;6.204;2022-07-29T00:42:04;22.70;43.90
49132;DHT22;35149;51.196;6.204;2022-07-29T00:44:36;22.70;43.80
49132;DHT22;35149;51.196;6.204;2022-07-29T00:47:03;22.70;43.80
49132;DHT22;35149;51.196;6.204;2022-07-29T00:49:34;22.70;43.40
49132;DHT22;35149;51.196;6.204;2022-07-29T00:52:11;22.70;44.20
49132;DHT22;35149;51.196;6.204;2022-07-29T00:54:40;22.70;43.60
49132;DHT22;35149;51.196;6.204;2022-07-29T00:57:11;22.70;43.50
49132;DHT22;35149;51.196;6.204;2022-07-29T00:59:37;22.60;44.00
49132;DHT22;35149;51.196;6.204;2022-07-29T01:02:07;22.70;43.20
49132;DHT22;35149;51.196;6.204;2022-07-29T01:04:35;22.60;43.10
49132;DHT22;35149;51.196;6.204;2022-07-29T01:07:05;22.60;43.30
49132;DHT22;35149;51.196;6.204;2022-07-29T01:09:42;22.60;43.30
49132;DHT22;35149;51.196;6.204;2022-07-29T01:12:24;22.60;43.40
49132;DHT22;35149;51.196;6.204;2022-07-29T01:14:52;22.60;43.50
49132;DHT22;35149;51.196;6.204;2022-07-29T01:31:11;22.40;43.10
49132;DHT22;35149;51.196;6.204;2022-07-29T01:33:52;22.40;43.30
49132;DHT22;35149;51.196;6.204;2022-07-29T01:36:50;22.40;42.70
49132;DHT22;35149;51.196;6.204;2022-07-29T01:39:35;22.30;43.20
49132;DHT22;35149;51.196;6.204;2022-07-29T01:42:12;22.30;43.50
49132;DHT22;35149;51.196;6.204;2022-07-29T01:47:50;22.20;43.90
49132;DHT22;35149;51.196;6.204;2022-07-29T01:50:20;22.10;44.10
49132;DHT22;35149;51.196;6.204;2022-07-29T01:52:54;22.10;44.10
49132;DHT22;35149;51.196;6.204;2022-07-29T01:55:26;22.00;44.50
49132;DHT22;35149;51.196;6.204;2022-07-29T01:57:58;22.00;44.60
49132;DHT22;35149;51.196;6.204;2022-07-29T02:00:27;21.90;44.50
49132;DHT22;35149;51.196;6.204;2022-07-29T02:02:56;21.90;44.60
49132;DHT22;35149;51.196;6.204;2022-07-29T02:05:24;21.80;44.70
49132;DHT22;35149;51.196;6.204;2022-07-29T02:07:54;21.80;44.90
49132;DHT22;35149;51.196;6.204;2022-07-29T02:10:26;21.80;45.30
49132;DHT22;35149;51.196;6.204;2022-07-29T02:12:57;21.80;45.80
49132;DHT22;35149;51.196;6.204;2022-07-29T02:15:32;21.70;46.30
49132;DHT22;35149;51.196;6.204;2022-07-29T02:18:06;21.70;46.70
49132;DHT22;35149;51.196;6.204;2022-07-29T02:20:34;21.70;46.90
49132;DHT22;35149;51.196;6.204;2022-07-29T02:23:02;21.60;46.80
49132;DHT22;35149;51.196;6.204;2022-07-29T02:25:30;21.60;47.10
49132;DHT22;35149;51.196;6.204;2022-07-29T02:28:06;21.60;47.60
49132;DHT22;35149;51.196;6.204;2022-07-29T02:30:40;21.60;47.60
49132;DHT22;35149;51.196;6.204;2022-07-29T02:33:14;21.60;46.30
49132;DHT22;35149;51.196;6.204;2022-07-29T02:35:43;21.60;48.10
49132;DHT22;35149;51.196;6.204;2022-07-29T02:38:16;21.60;49.00
49132;DHT22;35149;51.196;6.204;2022-07-29T02:41:11;21.50;52.30
49132;DHT22;35149;51.196;6.204;2022-07-29T02:43:39;21.50;54.10
49132;DHT22;35149;51.196;6.204;2022-07-29T02:46:14;21.50;53.70
49132;DHT22;35149;51.196;6.204;2022-07-29T02:49:15;21.40;53.70
49132;DHT22;35149;51.196;6.204;2022-07-29T02:51:51;21.40;55.50
49132;DHT22;35149;51.196;6.204;2022-07-29T02:57:36;21.20;55.00
49132;DHT22;35149;51.196;6.204;2022-07-29T03:00:23;21.00;55.50
49132;DHT22;35149;51.196;6.204;2022-07-29T03:02:59;20.90;54.40
49132;DHT22;35149;51.196;6.204;2022-07-29T03:05:26;20.80;55.00
49132;DHT22;35149;51.196;6.204;2022-07-29T03:08:04;20.70;55.10
49132;DHT22;35149;51.196;6.204;2022-07-29T03:10:35;20.60;56.50
49132;DHT22;35149;51.196;6.204;2022-07-29T03:13:05;20.50;55.50
49132;DHT22;35149;51.196;6.204;2022-07-29T03:15:34;20.50;55.90
49132;DHT22;35149;51.196;6.204;2022-07-29T03:18:05;20.40;56.20
49132;DHT22;35149;51.196;6.204;2022-07-29T03:20:33;20.40;56.90
49132;DHT22;35149;51.196;6.204;2022-07-29T03:23:00;20.40;56.60
49132;DHT22;35149;51.196;6.204;2022-07-29T03:25:29;20.40;56.40
49132;DHT22;35149;51.196;6.204;2022-07-29T03:28:00;20.30;56.90
49132;DHT22;35149;51.196;6.204;2022-07-29T03:30:29;20.30;57.10
49132;DHT22;35149;51.196;6.204;2022-07-29T03:32:58;20.30;56.60
49132;DHT22;35149;51.196;6.204;2022-07-29T03:35:30;20.20;56.60
49132;DHT22;35149;51.196;6.204;2022-07-29T03:38:01;20.20;56.60
49132;DHT22;35149;51.196;6.204;2022-07-29T03:40:42;20.20;56.60
49132;DHT22;35149;51.196;6.204;2022-07-29T03:43:11;20.10;57.10
49132;DHT22;35149;51.196;6.204;2022-07-29T03:45:43;20.10;56.90
49132;DHT22;35149;51.196;6.204;2022-07-29T03:48:13;20.10;57.30
49132;DHT22;35149;51.196;6.204;2022-07-29T03:50:43;20.00;57.50
49132;DHT22;35149;51.196;6.204;2022-07-29T03:53:12;20.00;57.60
49132;DHT22;35149;51.196;6.204;2022-07-29T03:55:45;20.00;58.20
49132;DHT22;35149;51.196;6.204;2022-07-29T03:58:15;20.00;60.00
49132;DHT22;35149;51.196;6.204;2022-07-29T04:00:43;20.00;58.20
49132;DHT22;35149;51.196;6.204;2022-07-29T04:03:10;20.10;58.10
49132;DHT22;35149;51.196;6.204;2022-07-29T04:05:37;20.10;57.60
49132;DHT22;35149;51.196;6.204;2022-07-29T04:08:04;20.10;57.60
49132;DHT22;35149;51.196;6.204;2022-07-29T04:10:40;20.10;58.50
49132;DHT22;35149;51.196;6.204;2022-07-29T04:13:14;20.10;59.00
49132;DHT22;35149;51.196;6.204;2022-07-29T04:15:40;20.10;58.70
49132;DHT22;35149;51.196;6.204;2022-07-29T04:18:10;20.10;58.80
49132;DHT22;35149;51.196;6.204;2022-07-29T04:20:40;20.10;59.10
49132;DHT22;35149;51.196;6.204;2022-07-29T04:23:08;20.10;59.90
49132;DHT22;35149;51.196;6.204;2022-07-29T04:25:39;20.10;59.60
49132;DHT22;35149;51.196;6.204;2022-07-29T04:28:15;20.10;60.60
49132;DHT22;35149;51.196;6.204;2022-07-29T04:30:42;20.10;60.20
49132;DHT22;35149;51.196;6.204;2022-07-29T04:33:12;20.10;60.70
49132;DHT22;35149;51.196;6.204;2022-07-29T04:35:38;20.20;60.90
49132;DHT22;35149;51.196;6.204;2022-07-29T04:38:16;20.10;60.70
49132;DHT22;35149;51.196;6.204;2022-07-29T04:40:45;20.20;60.20
49132;DHT22;35149;51.196;6.204;2022-07-29T04:43:12;20.20;61.00
49132;DHT22;35149;51.196;6.204;2022-07-29T04:45:41;20.20;60.50
49132;DHT22;35149;51.196;6.204;2022-07-29T04:48:08;20.20;60.20
49132;DHT22;35149;51.196;6.204;2022-07-29T04:50:38;20.20;59.80
49132;DHT22;35149;51.196;6.204;2022-07-29T04:53:05;20.20;60.10
49132;DHT22;35149;51.196;6.204;2022-07-29T04:55:33;20.20;59.60
49132;DHT22;35149;51.196;6.204;2022-07-29T04:57:59;20.20;59.60
49132;DHT22;35149;51.196;6.204;2022-07-29T05:00:27;20.10;59.40
49132;DHT22;35149;51.196;6.204;2022-07-29T05:02:59;20.10;59.40
49132;DHT22;35149;51.196;6.204;2022-07-29T05:05:26;20.10;59.60
49132;DHT22;35149;51.196;6.204;2022-07-29T05:07:52;20.10;59.60
49132;DHT22;35149;51.196;6.204;2022-07-29T05:10:19;20.00;59.60
49132;DHT22;35149;51.196;6.204;2022-07-29T05:12:46;20.10;60.00
49132;DHT22;35149;51.196;6.204;2022-07-29T05:15:13;20.00;59.90
49132;DHT22;35149;51.196;6.204;2022-07-29T05:17:40;20.10;59.70
49132;DHT22;35149;51.196;6.204;2022-07-29T05:20:07;20.00;59.60
49132;DHT22;35149;51.196;6.204;2022-07-29T05:22:34;20.10;59.60
49132;DHT22;35149;51.196;6.204;2022-07-29T05:25:01;20.00;60.10
49132;DHT22;35149;51.196;6.204;2022-07-29T05:27:35;20.00;59.80
49132;DHT22;35149;51.196;6.204;2022-07-29T05:30:02;20.10;60.20
49132;DHT22;35149;51.196;6.204;2022-07-29T05:32:29;20.10;60.00
49132;DHT22;35149;51.196;6.204;2022-07-29T05:34:56;20.10;60.20
49132;DHT22;35149;51.196;6.204;2022-07-29T05:37:22;20.20;60.70
49132;DHT22;35149;51.196;6.204;2022-07-29T05:39:49;20.20;60.40
49132;DHT22;35149;51.196;6.204;2022-07-29T05:42:23;20.20;60.80
49132;DHT22;35149;51.196;6.204;2022-07-29T05:44:50;20.30;61.30
49132;DHT22;35149;51.196;6.204;2022-07-29T05:47:17;20.30;60.60
49132;DHT22;35149;51.196;6.204;2022-07-29T05:49:44;20.40;60.80
49132;DHT22;35149;51.196;6.204;2022-07-29T05:52:12;20.40;60.40
49132;DHT22;35149;51.196;6.204;2022-07-29T05:54:39;20.40;60.70
49132;DHT22;35149;51.196;6.204;2022-07-29T05:57:06;20.40;60.70
49132;DHT22;35149;51.196;6.204;2022-07-29T05:59:37;20.40;61.00
49132;DHT22;35149;51.196;6.204;2022-07-29T06:02:04;20.50;61.90
49132;DHT22;35149;51.196;6.204;2022-07-29T06:04:32;20.50;61.90
49132;DHT22;35149;51.196;6.204;2022-07-29T06:06:59;20.50;62.10
49132;DHT22;35149;51.196;6.204;2022-07-29T06:09:25;20.50;62.00
49132;DHT22;35149;51.196;6.204;2022-07-29T06:11:52;20.60;62.10
49132;DHT22;35149;51.196;6.204;2022-07-29T06:14:19;20.60;62.20
49132;DHT22;35149;51.196;6.204;2022-07-29T06:16:46;20.60;62.20
49132;DHT22;35149;51.196;6.204;2022-07-29T06:19:13;20.60;62.20
49132;DHT22;35149;51.196;6.204;2022-07-29T06:21:43;20.70;62.80
49132;DHT22;35149;51.196;6.204;2022-07-29T06:24:13;20.60;62.50
49132;DHT22;35149;51.196;6.204;2022-07-29T06:26:42;20.70;62.20
49132;DHT22;35149;51.196;6.204;2022-07-29T06:29:09;20.70;62.30
49132;DHT22;35149;51.196;6.204;2022-07-29T06:31:37;20.70;62.40
49132;DHT22;35149;51.196;6.204;2022-07-29T06:34:04;20.70;62.20
49132;DHT22;35149;51.196;6.204;2022-07-29T06:36:34;20.70;62.10
49132;DHT22;35149;51.196;6.204;2022-07-29T06:39:07;20.70;62.50
49132;DHT22;35149;51.196;6.204;2022-07-29T06:41:34;20.80;62.40
49132;DHT22;35149;51.196;6.204;2022-07-29T06:44:08;20.80;62.00
49132;DHT22;35149;51.196;6.204;2022-07-29T06:46:35;20.80;61.90
49132;DHT22;35149;51.196;6.204;2022-07-29T06:49:03;20.80;61.80
49132;DHT22;35149;51.196;6.204;2022-07-29T06:51:30;20.90;62.10
49132;DHT22;35149;51.196;6.204;2022-07-29T06:53:57;20.90;61.90
49132;DHT22;35149;51.196;6.204;2022-07-29T06:56:30;20.90;61.80
49132;DHT22;35149;51.196;6.204;2022-07-29T06:58:57;20.90;61.80
49132;DHT22;35149;51.196;6.204;2022-07-29T07:01:24;21.00;61.90
49132;DHT22;35149;51.196;6.204;2022-07-29T07:03:50;21.00;62.00
49132;DHT22;35149;51.196;6.204;2022-07-29T07:06:17;21.00;62.30
49132;DHT22;35149;51.196;6.204;2022-07-29T07:08:44;21.00;62.10
49132;DHT22;35149;51.196;6.204;2022-07-29T07:11:12;21.00;62.20
49132;DHT22;35149;51.196;6.204;2022-07-29T07:13:38;21.00;62.20
49132;DHT22;35149;51.196;6.204;2022-07-29T07:16:05;21.00;62.00
49132;DHT22;35149;51.196;6.204;2022-07-29T07:18:32;21.00;61.90
49132;DHT22;35149;51.196;6.204;2022-07-29T07:20:59;21.00;62.10
49132;DHT22;35149;51.196;6.204;2022-07-29T07:23:26;21.10;62.70
49132;DHT22;35149;51.196;6.204;2022-07-29T07:25:52;21.10;62.00
49132;DHT22;35149;51.196;6.204;2022-07-29T07:28:19;21.20;62.10
49132;DHT22;35149;51.196;6.204;2022-07-29T07:30:51;21.20;61.90
49132;DHT22;35149;51.196;6.204;2022-07-29T07:33:18;21.20;61.80
49132;DHT22;35149;51.196;6.204;2022-07-29T07:35:45;21.30;62.10
49132;DHT22;35149;51.196;6.204;2022-07-29T07:38:12;21.40;61.80
49132;DHT22;35149;51.196;6.204;2022-07-29T07:40:40;21.40;62.10
49132;DHT22;35149;51.196;6.204;2022-07-29T07:43:07;21.50;61.80
49132;DHT22;35149;51.196;6.204;2022-07-29T07:45:33;21.60;61.30
49132;DHT22;35149;51.196;6.204;2022-07-29T07:48:03;21.70;61.00
49132;DHT22;35149;51.196;6.204;2022-07-29T07:50:32;21.80;60.90
49132;DHT22;35149;51.196;6.204;2022-07-29T07:52:59;21.90;60.40
49132;DHT22;35149;51.196;6.204;2022-07-29T07:55:28;22.00;60.30
49132;DHT22;35149;51.196;6.204;2022-07-29T07:58:15;22.00;59.70
49132;DHT22;35149;51.196;6.204;2022-07-29T08:00:41;22.10;59.20
49132;DHT22;35149;51.196;6.204;2022-07-29T08:03:08;22.20;59.90
49132;DHT22;35149;51.196;6.204;2022-07-29T08:05:42;22.20;59.50
49132;DHT22;35149;51.196;6.204;2022-07-29T08:08:09;22.30;59.40
49132;DHT22;35149;51.196;6.204;2022-07-29T08:10:36;22.40;59.10
49132;DHT22;35149;51.196;6.204;2022-07-29T08:13:25;22.40;58.90
49132;DHT22;35149;51.196;6.204;2022-07-29T08:15:59;22.50;58.70
49132;DHT22;35149;51.196;6.204;2022-07-29T08:18:38;22.60;58.20
49132;DHT22;35149;51.196;6.204;2022-07-29T08:21:05;22.70;57.80
49132;DHT22;35149;51.196;6.204;2022-07-29T08:23:32;22.70;57.40
49132;DHT22;35149;51.196;6.204;2022-07-29T08:26:14;22.70;57.90
49132;DHT22;35149;51.196;6.204;2022-07-29T08:28:42;22.70;57.20
49132;DHT22;35149;51.196;6.204;2022-07-29T08:31:12;22.70;57.10
49132;DHT22;35149;51.196;6.204;2022-07-29T08:33:39;22.60;57.50
49132;DHT22;35149;51.196;6.204;2022-07-29T08:36:06;22.60;57.10
49132;DHT22;35149;51.196;6.204;2022-07-29T08:38:33;22.50;56.90
49132;DHT22;35149;51.196;6.204;2022-07-29T08:41:01;22.50;57.10
49132;DHT22;35149;51.196;6.204;2022-07-29T08:43:28;22.50;57.20
49132;DHT22;35149;51.196;6.204;2022-07-29T08:45:55;22.50;57.30
49132;DHT22;35149;51.196;6.204;2022-07-29T08:48:23;22.50;57.30
49132;DHT22;35149;51.196;6.204;2022-07-29T08:50:55;22.50;57.70
49132;DHT22;35149;51.196;6.204;2022-07-29T08:53:24;22.50;58.20
49132;DHT22;35149;51.196;6.204;2022-07-29T08:55:53;22.50;57.80
49132;DHT22;35149;51.196;6.204;2022-07-29T08:58:20;22.50;57.80
49132;DHT22;35149;51.196;6.204;2022-07-29T09:00:52;22.50;58.10
49132;DHT22;35149;51.196;6.204;2022-07-29T09:03:23;22.60;58.00
49132;DHT22;35149;51.196;6.204;2022-07-29T09:05:53;22.60;57.50
49132;DHT22;35149;51.196;6.204;2022-07-29T09:08:23;22.70;58.10
49132;DHT22;35149;51.196;6.204;2022-07-29T09:10:50;22.70;58.20
49132;DHT22;35149;51.196;6.204;2022-07-29T09:13:17;22.70;58.20
49132;DHT22;35149;51.196;6.204;2022-07-29T09:15:44;22.80;58.00
49132;DHT22;35149;51.196;6.204;2022-07-29T09:18:11;22.80;57.90
49132;DHT22;35149;51.196;6.204;2022-07-29T09:20:56;22.90;57.30
49132;DHT22;35149;51.196;6.204;2022-07-29T09:23:41;23.00;57.60
49132;DHT22;35149;51.196;6.204;2022-07-29T09:26:29;23.10;57.00
49132;DHT22;35149;51.196;6.204;2022-07-29T09:28:57;23.20;56.30
49132;DHT22;35149;51.196;6.204;2022-07-29T09:31:35;23.30;56.40
49132;DHT22;35149;51.196;6.204;2022-07-29T09:34:03;23.40;56.10
49132;DHT22;35149;51.196;6.204;2022-07-29T09:36:29;23.50;55.80
49132;DHT22;35149;51.196;6.204;2022-07-29T09:39:00;23.50;56.10
49132;DHT22;35149;51.196;6.204;2022-07-29T09:41:28;23.70;54.90
49132;DHT22;35149;51.196;6.204;2022-07-29T09:43:59;23.80;54.60
49132;DHT22;35149;51.196;6.204;2022-07-29T09:46:26;23.80;54.60
49132;DHT22;35149;51.196;6.204;2022-07-29T09:49:10;23.90;55.40
49132;DHT22;35149;51.196;6.204;2022-07-29T09:51:37;24.00;54.70
49132;DHT22;35149;51.196;6.204;2022-07-29T09:54:23;24.10;54.00
49132;DHT22;35149;51.196;6.204;2022-07-29T09:56:50;24.20;53.40
49132;DHT22;35149;51.196;6.204;2022-07-29T09:59:17;24.20;53.30
49132;DHT22;35149;51.196;6.204;2022-07-29T10:01:46;24.20;52.60
49132;DHT22;35149;51.196;6.204;2022-07-29T10:04:13;24.20;52.00
49132;DHT22;35149;51.196;6.204;2022-07-29T10:06:56;24.20;52.30
49132;DHT22;35149;51.196;6.204;2022-07-29T10:09:30;24.20;51.70
49132;DHT22;35149;51.196;6.204;2022-07-29T10:12:10;24.20;52.00
49132;DHT22;35149;51.196;6.204;2022-07-29T10:14:37;24.30;51.80
49132;DHT22;35149;51.196;6.204;2022-07-29T10:17:06;24.30;51.90
49132;DHT22;35149;51.196;6.204;2022-07-29T10:19:34;24.30;52.30
49132;DHT22;35149;51.196;6.204;2022-07-29T10:22:04;24.40;51.90
49132;DHT22;35149;51.196;6.204;2022-07-29T10:24:31;24.40;51.70
49132;DHT22;35149;51.196;6.204;2022-07-29T10:27:01;24.50;52.20
49132;DHT22;35149;51.196;6.204;2022-07-29T10:29:29;24.50;51.90
49132;DHT22;35149;51.196;6.204;2022-07-29T10:40:28;24.70;51.60
49132;DHT22;35149;51.196;6.204;2022-07-29T10:43:27;24.80;51.20
49132;DHT22;35149;51.196;6.204;2022-07-29T10:45:57;24.90;51.10
49132;DHT22;35149;51.196;6.204;2022-07-29T10:48:24;24.90;51.20
49132;DHT22;35149;51.196;6.204;2022-07-29T10:50:54;25.00;51.50
49132;DHT22;35149;51.196;6.204;2022-07-29T10:53:23;25.10;50.60
49132;DHT22;35149;51.196;6.204;2022-07-29T10:55:52;25.10;50.60
49132;DHT22;35149;51.196;6.204;2022-07-29T10:58:20;25.10;50.50
49132;DHT22;35149;51.196;6.204;2022-07-29T11:00:49;25.10;50.60
49132;DHT22;35149;51.196;6.204;2022-07-29T11:03:48;25.10;51.30
49132;DHT22;35149;51.196;6.204;2022-07-29T11:06:22;25.20;51.40
49132;DHT22;35149;51.196;6.204;2022-07-29T11:09:16;25.20;51.00
49132;DHT22;35149;51.196;6.204;2022-07-29T11:11:45;25.20;50.70
49132;DHT22;35149;51.196;6.204;2022-07-29T11:14:18;25.20;50.40
49132;DHT22;35149;51.196;6.204;2022-07-29T11:19:26;25.20;49.50
49132;DHT22;35149;51.196;6.204;2022-07-29T11:21:57;25.20;49.40
49132;DHT22;35149;51.196;6.204;2022-07-29T11:24:30;25.20;49.60
49132;DHT22;35149;51.196;6.204;2022-07-29T11:27:17;25.10;50.10
49132;DHT22;35149;51.196;6.204;2022-07-29T11:29:58;25.20;50.60
49132;DHT22;35149;51.196;6.204;2022-07-29T11:32:38;25.20;50.20
49132;DHT22;35149;51.196;6.204;2022-07-29T11:35:20;25.30;50.50
49132;DHT22;35149;51.196;6.204;2022-07-29T11:38:25;25.40;50.50
49132;DHT22;35149;51.196;6.204;2022-07-29T11:41:19;25.50;50.30
49132;DHT22;35149;51.196;6.204;2022-07-29T11:43:53;25.60;49.90
49132;DHT22;35149;51.196;6.204;2022-07-29T11:46:46;25.70;50.30
49132;DHT22;35149;51.196;6.204;2022-07-29T11:49:22;25.80;49.30
49132;DHT22;35149;51.196;6.204;2022-07-29T11:52:10;25.90;49.20
49132;DHT22;35149;51.196;6.204;2022-07-29T11:54:42;26.00;49.00
49132;DHT22;35149;51.196;6.204;2022-07-29T11:57:26;26.10;49.00
49132;DHT22;35149;51.196;6.204;2022-07-29T12:00:06;26.20;49.50
49132;DHT22;35149;51.196;6.204;2022-07-29T12:02:39;26.30;49.40
49132;DHT22;35149;51.196;6.204;2022-07-29T12:05:09;26.40;48.50
49132;DHT22;35149;51.196;6.204;2022-07-29T12:07:38;26.50;48.30
49132;DHT22;35149;51.196;6.204;2022-07-29T12:10:10;26.60;48.10
49132;DHT22;35149;51.196;6.204;2022-07-29T12:12:51;26.70;48.30
49132;DHT22;35149;51.196;6.204;2022-07-29T12:15:19;26.80;47.90
49132;DHT22;35149;51.196;6.204;2022-07-29T12:17:47;26.90;48.20
49132;DHT22;35149;51.196;6.204;2022-07-29T12:20:23;27.00;47.70
49132;DHT22;35149;51.196;6.204;2022-07-29T12:22:50;27.10;47.10
49132;DHT22;35149;51.196;6.204;2022-07-29T12:25:21;27.10;46.90
49132;DHT22;35149;51.196;6.204;2022-07-29T12:28:05;27.20;47.40
49132;DHT22;35149;51.196;6.204;2022-07-29T12:35:38;27.60;46.30
49132;DHT22;35149;51.196;6.204;2022-07-29T12:38:06;27.80;46.30
49132;DHT22;35149;51.196;6.204;2022-07-29T12:40:33;27.90;46.10
49132;DHT22;35149;51.196;6.204;2022-07-29T12:43:18;28.00;45.70
49132;DHT22;35149;51.196;6.204;2022-07-29T12:45:48;28.10;45.60
49132;DHT22;35149;51.196;6.204;2022-07-29T12:48:17;28.20;44.90
49132;DHT22;35149;51.196;6.204;2022-07-29T12:51:05;28.30;44.60
49132;DHT22;35149;51.196;6.204;2022-07-29T12:53:36;28.50;44.00
49132;DHT22;35149;51.196;6.204;2022-07-29T12:56:04;28.50;44.80
49132;DHT22;35149;51.196;6.204;2022-07-29T12:58:50;28.50;44.10
49132;DHT22;35149;51.196;6.204;2022-07-29T13:01:18;28.50;44.70
49132;DHT22;35149;51.196;6.204;2022-07-29T13:03:52;28.50;43.90
49132;DHT22;35149;51.196;6.204;2022-07-29T13:09:02;28.50;44.10
49132;DHT22;35149;51.196;6.204;2022-07-29T13:11:30;28.50;45.10
49132;DHT22;35149;51.196;6.204;2022-07-29T13:14:00;28.60;44.20
49132;DHT22;35149;51.196;6.204;2022-07-29T13:16:32;28.70;44.90
49132;DHT22;35149;51.196;6.204;2022-07-29T13:19:04;28.70;44.50
49132;DHT22;35149;51.196;6.204;2022-07-29T13:21:31;28.80;44.40
49132;DHT22;35149;51.196;6.204;2022-07-29T13:23:58;29.00;44.10
49132;DHT22;35149;51.196;6.204;2022-07-29T13:26:25;29.00;44.30
49132;DHT22;35149;51.196;6.204;2022-07-29T13:28:52;29.10;44.70
49132;DHT22;35149;51.196;6.204;2022-07-29T13:31:21;29.20;44.50
49132;DHT22;35149;51.196;6.204;2022-07-29T13:33:48;29.40;44.60
49132;DHT22;35149;51.196;6.204;2022-07-29T13:36:15;29.60;44.50
49132;DHT22;35149;51.196;6.204;2022-07-29T13:38:42;29.80;44.70
49132;DHT22;35149;51.196;6.204;2022-07-29T13:41:08;30.30;44.40
49132;DHT22;35149;51.196;6.204;2022-07-29T13:43:36;30.80;43.10
49132;DHT22;35149;51.196;6.204;2022-07-29T13:46:02;31.60;44.00
49132;DHT22;35149;51.196;6.204;2022-07-29T13:48:29;32.50;43.70
49132;DHT22;35149;51.196;6.204;2022-07-29T13:50:56;33.60;42.20
49132;DHT22;35149;51.196;6.204;2022-07-29T13:53:23;34.60;40.60
49132;DHT22;35149;51.196;6.204;2022-07-29T13:55:53;35.60;38.90
49132;DHT22;35149;51.196;6.204;2022-07-29T13:58:20;36.60;38.90
49132;DHT22;35149;51.196;6.204;2022-07-29T14:00:46;37.50;37.50
49132;DHT22;35149;51.196;6.204;2022-07-29T14:03:16;38.40;36.40
49132;DHT22;35149;51.196;6.204;2022-07-29T14:05:43;39.30;34.80
49132;DHT22;35149;51.196;6.204;2022-07-29T14:08:10;40.20;34.10
49132;DHT22;35149;51.196;6.204;2022-07-29T14:10:37;41.10;32.70
49132;DHT22;35149;51.196;6.204;2022-07-29T14:13:03;41.70;31.40
49132;DHT22;35149;51.196;6.204;2022-07-29T14:15:30;42.30;30.80
49132;DHT22;35149;51.196;6.204;2022-07-29T14:17:57;42.90;29.90
49132;DHT22;35149;51.196;6.204;2022-07-29T14:20:24;43.40;29.80
49132;DHT22;35149;51.196;6.204;2022-07-29T14:22:50;43.80;29.10
49132;DHT22;35149;51.196;6.204;2022-07-29T14:25:19;44.30;28.30
49132;DHT22;35149;51.196;6.204;2022-07-29T14:27:49;44.60;27.60
49132;DHT22;35149;51.196;6.204;2022-07-29T14:30:15;44.90;27.50
49132;DHT22;35149;51.196;6.204;2022-07-29T14:32:42;45.20;26.80
49132;DHT22;35149;51.196;6.204;2022-07-29T14:35:09;45.40;26.40
49132;DHT22;35149;51.196;6.204;2022-07-29T14:37:36;45.60;26.80
49132;DHT22;35149;51.196;6.204;2022-07-29T14:40:06;45.70;26.20
49132;DHT22;35149;51.196;6.204;2022-07-29T14:42:33;45.60;25.90
49132;DHT22;35149;51.196;6.204;2022-07-29T14:45:00;45.10;25.70
49132;DHT22;35149;51.196;6.204;2022-07-29T14:47:27;44.80;26.20
49132;DHT22;35149;51.196;6.204;2022-07-29T14:49:54;44.70;26.40
49132;DHT22;35149;51.196;6.204;2022-07-29T14:52:21;44.60;26.30
49132;DHT22;35149;51.196;6.204;2022-07-29T14:54:47;44.40;25.80
49132;DHT22;35149;51.196;6.204;2022-07-29T14:57:14;43.90;25.80
49132;DHT22;35149;51.196;6.204;2022-07-29T14:59:41;43.20;25.90
49132;DHT22;35149;51.196;6.204;2022-07-29T15:02:08;42.50;26.10
49132;DHT22;35149;51.196;6.204;2022-07-29T15:04:35;41.80;26.70
49132;DHT22;35149;51.196;6.204;2022-07-29T15:07:02;41.40;26.80
49132;DHT22;35149;51.196;6.204;2022-07-29T15:09:28;41.30;27.20
49132;DHT22;35149;51.196;6.204;2022-07-29T15:11:55;41.30;27.20
49132;DHT22;35149;51.196;6.204;2022-07-29T15:14:22;41.40;27.10
49132;DHT22;35149;51.196;6.204;2022-07-29T15:16:49;41.40;27.00
49132;DHT22;35149;51.196;6.204;2022-07-29T15:19:18;41.40;27.00
49132;DHT22;35149;51.196;6.204;2022-07-29T15:21:45;41.50;27.20
49132;DHT22;35149;51.196;6.204;2022-07-29T15:24:15;41.50;26.80
49132;DHT22;35149;51.196;6.204;2022-07-29T15:26:43;41.40;26.90
49132;DHT22;35149;51.196;6.204;2022-07-29T15:29:09;41.20;26.90
49132;DHT22;35149;51.196;6.204;2022-07-29T15:31:36;40.90;26.90
49132;DHT22;35149;51.196;6.204;2022-07-29T15:34:03;40.50;27.10
49132;DHT22;35149;51.196;6.204;2022-07-29T15:36:32;40.00;27.10
49132;DHT22;35149;51.196;6.204;2022-07-29T15:39:18;39.80;28.10
49132;DHT22;35149;51.196;6.204;2022-07-29T15:41:45;39.70;28.30
49132;DHT22;35149;51.196;6.204;2022-07-29T15:44:12;39.70;28.00
49132;DHT22;35149;51.196;6.204;2022-07-29T15:46:39;39.70;28.10
49132;DHT22;35149;51.196;6.204;2022-07-29T15:49:37;39.80;28.00
49132;DHT22;35149;51.196;6.204;2022-07-29T15:52:18;39.80;28.00
49132;DHT22;35149;51.196;6.204;2022-07-29T15:54:52;40.00;27.80
49132;DHT22;35149;51.196;6.204;2022-07-29T15:57:19;40.20;27.90
49132;DHT22;35149;51.196;6.204;2022-07-29T15:59:46;40.50;27.90
49132;DHT22;35149;51.196;6.204;2022-07-29T16:02:12;40.80;28.20
49132;DHT22;35149;51.196;6.204;2022-07-29T16:04:39;41.10;27.90
49132;DHT22;35149;51.196;6.204;2022-07-29T16:07:06;41.40;27.70
49132;DHT22;35149;51.196;6.204;2022-07-29T16:09:33;41.60;27.40
49132;DHT22;35149;51.196;6.204;2022-07-29T16:12:00;41.90;27.30
49132;DHT22;35149;51.196;6.204;2022-07-29T16:14:27;42.20;27.30
49132;DHT22;35149;51.196;6.204;2022-07-29T16:16:54;42.30;26.90
49132;DHT22;35149;51.196;6.204;2022-07-29T16:19:22;42.20;26.60
49132;DHT22;35149;51.196;6.204;2022-07-29T16:21:49;41.80;26.50
49132;DHT22;35149;51.196;6.204;2022-07-29T16:24:15;41.20;26.50
49132;DHT22;35149;51.196;6.204;2022-07-29T16:26:42;40.60;26.90
49132;DHT22;35149;51.196;6.204;2022-07-29T16:29:09;40.00;27.20
49132;DHT22;35149;51.196;6.204;2022-07-29T16:31:38;39.30;27.50